createdAt,value
2019-04-27T00:00:07.854Z,4.53
2019-04-27T00:03:20.138Z,5.72
2019-04-27T00:06:30.886Z,5.70
2019-04-27T00:09:50.045Z,4.37
2019-04-27T00:12:50.673Z,6.17
2019-04-27T00:16:11.164Z,4.72
2019-04-27T00:19:27.337Z,6.12
2019-04-27T00:22:37.412Z,4.55
2019-04-27T00:25:44.240Z,3.92
2019-04-27T00:28:50.791Z,4.50
2019-04-27T00:31:57.463Z,5.97
2019-04-27T00:35:08.452Z,6.90
2019-04-27T00:38:34.010Z,5.78
2019-04-27T00:41:40.578Z,6.17
2019-04-27T00:44:47.216Z,5.90
2019-04-27T00:47:59.283Z,6.90
2019-04-27T00:51:02.035Z,6.60
2019-04-27T00:54:08.604Z,3.95
2019-04-27T00:57:35.055Z,6.92
2019-04-27T01:01:14.934Z,6.40
2019-04-27T01:04:24.532Z,7.37
2019-04-27T01:07:33.421Z,5.55
2019-04-27T01:10:39.980Z,6.25
2019-04-27T01:13:46.660Z,6.05
2019-04-27T01:16:53.389Z,6.10
2019-04-27T01:20:00.005Z,6.78
2019-04-27T01:23:06.515Z,5.55
2019-04-27T01:26:30.964Z,5.60
2019-04-27T01:29:39.261Z,5.45
2019-04-27T01:32:45.744Z,7.20
2019-04-27T01:35:52.231Z,7.35
2019-04-27T01:38:59.543Z,5.75
2019-04-27T01:42:06.300Z,6.62
2019-04-27T01:45:13.199Z,6.90
2019-04-27T01:48:23.881Z,5.92
2019-04-27T01:51:29.457Z,5.33
2019-04-27T01:54:36.929Z,6.10
2019-04-27T01:57:43.386Z,6.60
2019-04-27T02:01:12.833Z,5.80
2019-04-27T02:04:26.900Z,6.60
2019-04-27T02:07:33.593Z,4.72
2019-04-27T02:10:40.087Z,7.55
2019-04-27T02:13:46.832Z,5.33
2019-04-27T02:16:53.478Z,6.03
2019-04-27T02:20:01.120Z,6.47
2019-04-27T02:23:09.143Z,7.60
2019-04-27T02:26:15.833Z,6.92
2019-04-27T02:29:51.120Z,6.58
2019-04-27T02:33:22.471Z,9.43
2019-04-27T02:36:31.257Z,8.38
2019-04-27T02:39:39.890Z,8.83
2019-04-27T02:42:49.950Z,9.15
2019-04-27T02:45:56.219Z,8.15
2019-04-27T02:49:06.334Z,7.05
2019-04-27T02:52:20.535Z,9.00
2019-04-27T02:55:29.246Z,7.10
2019-04-27T02:58:35.788Z,9.00
2019-04-27T03:01:54.459Z,8.58
2019-04-27T03:05:01.899Z,9.83
2019-04-27T03:08:10.249Z,7.30
2019-04-27T03:11:16.873Z,8.80
2019-04-27T03:14:43.741Z,8.00
2019-04-27T03:18:09.915Z,8.98
2019-04-27T03:21:22.067Z,8.53
2019-04-27T03:24:46.519Z,9.18
2019-04-27T03:27:55.179Z,8.00
2019-04-27T03:31:02.971Z,9.55
2019-04-27T03:34:15.724Z,9.83
2019-04-27T03:37:20.321Z,10.40
2019-04-27T03:40:27.023Z,10.45
2019-04-27T03:43:33.573Z,9.73
2019-04-27T03:46:42.338Z,9.23
2019-04-27T03:49:50.751Z,10.55
2019-04-27T03:53:16.949Z,8.00
2019-04-27T03:56:33.047Z,10.43
2019-04-27T04:00:06.210Z,8.53
2019-04-27T04:03:14.312Z,7.30
2019-04-27T04:06:20.832Z,9.18
2019-04-27T04:09:40.371Z,8.60
2019-04-27T04:12:56.203Z,9.53
2019-04-27T04:16:15.972Z,10.30
2019-04-27T04:19:22.616Z,10.08
2019-04-27T04:22:30.274Z,11.63
2019-04-27T04:25:37.283Z,8.63
2019-04-27T04:28:46.158Z,10.40
2019-04-27T04:31:52.737Z,13.40
2019-04-27T04:35:21.213Z,11.70
2019-04-27T04:38:30.437Z,10.25
2019-04-27T04:41:51.494Z,10.70
2019-04-27T04:45:22.625Z,10.48
2019-04-27T04:48:30.438Z,10.35
2019-04-27T04:51:37.210Z,8.33
2019-04-27T04:54:44.142Z,12.43
2019-04-27T04:57:50.731Z,11.85
2019-04-27T05:00:59.650Z,11.80
2019-04-27T05:04:05.630Z,9.88
2019-04-27T05:07:12.236Z,10.65
2019-04-27T05:10:19.015Z,10.13
2019-04-27T05:13:27.217Z,12.00
2019-04-27T05:16:33.706Z,12.35
2019-04-27T05:19:40.167Z,10.98
2019-04-27T05:22:49.133Z,11.43
2019-04-27T05:25:55.876Z,10.40
2019-04-27T05:29:03.357Z,11.93
2019-04-27T05:32:11.472Z,11.78
2019-04-27T05:35:19.419Z,10.95
2019-04-27T05:38:27.036Z,11.40
2019-04-27T05:41:37.746Z,10.93
2019-04-27T05:45:31.136Z,10.20
2019-04-27T05:48:39.099Z,12.40
2019-04-27T05:51:48.026Z,11.03
2019-04-27T05:54:53.912Z,12.53
2019-04-27T05:58:00.421Z,11.25
2019-04-27T06:01:06.972Z,12.25
2019-04-27T06:04:13.436Z,13.50
2019-04-27T06:07:19.942Z,7.75
2019-04-27T06:10:26.582Z,11.63
2019-04-27T06:13:33.008Z,12.60
2019-04-27T06:16:39.585Z,15.15
2019-04-27T06:19:46.064Z,11.25
2019-04-27T06:22:52.734Z,11.10
2019-04-27T06:26:01.821Z,9.90
2019-04-27T06:29:09.453Z,9.68
2019-04-27T06:32:16.139Z,10.23
2019-04-27T06:35:22.703Z,11.73
2019-04-27T06:38:30.460Z,15.60
2019-04-27T06:41:37.058Z,12.45
2019-04-27T06:44:43.542Z,10.82
2019-04-27T06:47:51.281Z,9.33
2019-04-27T06:51:05.030Z,13.88
2019-04-27T06:54:06.118Z,12.78
2019-04-27T06:57:12.663Z,9.20
2019-04-27T07:00:20.180Z,15.03
2019-04-27T07:03:28.953Z,10.20
2019-04-27T07:06:35.699Z,13.32
2019-04-27T07:09:42.312Z,11.60
2019-04-27T07:12:49.264Z,13.30
2019-04-27T07:15:55.777Z,11.48
2019-04-27T07:19:02.294Z,14.18
2019-04-27T07:22:09.100Z,10.70
2019-04-27T07:25:18.903Z,11.60
2019-04-27T07:28:25.368Z,11.83
2019-04-27T07:31:32.051Z,11.22
2019-04-27T07:34:38.887Z,11.80
2019-04-27T07:37:45.919Z,13.05
2019-04-27T07:41:06.770Z,10.50
2019-04-27T07:44:22.329Z,11.95
2019-04-27T07:47:31.116Z,14.13
2019-04-27T07:50:39.022Z,11.68
2019-04-27T07:53:45.631Z,12.55
2019-04-27T07:56:53.156Z,8.75
2019-04-27T08:00:01.080Z,10.82
2019-04-27T08:03:10.060Z,12.25
2019-04-27T08:06:18.830Z,10.13
2019-04-27T08:09:25.025Z,13.88
2019-04-27T08:12:32.914Z,10.43
2019-04-27T08:15:39.751Z,12.85
2019-04-27T08:18:46.345Z,11.48
2019-04-27T08:21:52.811Z,10.95
2019-04-27T08:24:59.640Z,8.35
2019-04-27T08:28:20.558Z,10.35
2019-04-27T08:31:32.596Z,8.50
2019-04-27T08:34:39.824Z,10.70
2019-04-27T08:37:46.254Z,10.60
2019-04-27T08:40:53.765Z,8.78
2019-04-27T08:44:00.245Z,11.95
2019-04-27T08:47:06.831Z,10.20
2019-04-27T08:50:13.882Z,8.20
2019-04-27T08:53:20.554Z,14.28
2019-04-27T08:56:27.063Z,39.30
2019-04-27T08:59:33.723Z,15.58
2019-04-27T09:02:46.762Z,9.15
2019-04-27T09:05:49.048Z,67.70
2019-04-27T09:09:04.383Z,55.40
2019-04-27T09:12:29.454Z,8.80
2019-04-27T09:15:43.716Z,7.87
2019-04-27T09:18:51.795Z,9.50
2019-04-27T09:22:13.382Z,8.83
2019-04-27T09:25:13.841Z,10.08
2019-04-27T09:28:21.895Z,8.68
2019-04-27T09:31:28.857Z,7.72
2019-04-27T09:34:36.666Z,8.00
2019-04-27T09:37:43.386Z,9.40
2019-04-27T09:40:49.893Z,8.55
2019-04-27T09:43:56.409Z,9.43
2019-04-27T09:47:02.904Z,8.18
2019-04-27T09:50:09.926Z,8.43
2019-04-27T09:53:16.701Z,9.03
2019-04-27T09:56:23.394Z,9.83
2019-04-27T09:59:33.218Z,8.73
2019-04-27T10:02:39.892Z,8.73
2019-04-27T10:05:46.427Z,9.75
2019-04-27T10:08:53.156Z,8.13
2019-04-27T10:11:59.738Z,5.70
2019-04-27T10:15:07.250Z,6.92
2019-04-27T10:18:13.775Z,9.18
2019-04-27T10:21:20.368Z,8.08
2019-04-27T10:24:27.291Z,9.00
2019-04-27T10:27:35.834Z,5.53
2019-04-27T10:30:42.261Z,8.58
2019-04-27T10:33:48.767Z,6.20
2019-04-27T10:36:55.941Z,6.28
2019-04-27T10:40:02.497Z,7.62
2019-04-27T10:43:11.688Z,6.80
2019-04-27T10:46:18.266Z,6.40
2019-04-27T10:49:24.792Z,8.33
2019-04-27T10:52:31.413Z,4.67
2019-04-27T10:55:38.237Z,5.35
2019-04-27T10:58:45.697Z,6.12
2019-04-27T11:01:53.509Z,7.00
2019-04-27T11:05:13.742Z,7.28
2019-04-27T11:08:20.355Z,6.33
2019-04-27T11:11:27.791Z,6.75
2019-04-27T11:14:34.555Z,5.75
2019-04-27T11:17:41.080Z,4.95
2019-04-27T11:20:47.653Z,7.92
2019-04-27T11:23:55.862Z,5.08
2019-04-27T11:27:02.594Z,6.90
2019-04-27T11:30:10.813Z,7.20
2019-04-27T11:33:17.628Z,6.05
2019-04-27T11:36:48.259Z,5.33
2019-04-27T11:39:55.955Z,3.35
2019-04-27T11:43:03.774Z,6.90
2019-04-27T11:46:10.330Z,5.25
2019-04-27T11:49:17.023Z,4.58
2019-04-27T11:52:23.530Z,4.72
2019-04-27T11:55:33.110Z,5.35
2019-04-27T11:58:39.727Z,5.83
2019-04-27T12:01:47.912Z,5.60
2019-04-27T12:04:54.305Z,6.53
2019-04-27T12:08:01.063Z,7.87
2019-04-27T12:11:07.907Z,4.00
2019-04-27T12:14:14.396Z,3.35
2019-04-27T12:17:21.141Z,4.00
2019-04-27T12:20:31.283Z,4.17
2019-04-27T12:23:41.217Z,3.50
2019-04-27T12:26:53.063Z,3.60
2019-04-27T12:30:13.070Z,3.02
2019-04-27T12:33:20.029Z,2.98
2019-04-27T12:36:27.982Z,2.80
2019-04-27T12:39:34.461Z,4.03
2019-04-27T12:42:40.947Z,4.05
2019-04-27T12:45:47.668Z,5.00
2019-04-27T12:48:55.333Z,3.55
2019-04-27T12:52:02.639Z,4.25
2019-04-27T12:55:31.493Z,3.83
2019-04-27T12:58:47.531Z,3.05
2019-04-27T13:01:56.013Z,3.70
2019-04-27T13:05:02.537Z,2.45
2019-04-27T13:08:09.317Z,3.85
2019-04-27T13:11:16.282Z,3.65
2019-04-27T13:14:24.000Z,3.05
2019-04-27T13:17:30.752Z,3.10
2019-04-27T13:20:37.653Z,2.90
2019-04-27T13:23:45.817Z,2.37
2019-04-27T13:26:52.533Z,2.90
2019-04-27T13:30:00.829Z,3.52
2019-04-27T13:33:07.449Z,2.30
2019-04-27T13:36:16.940Z,2.33
2019-04-27T13:39:23.363Z,2.35
2019-04-27T13:42:32.377Z,3.10
2019-04-27T13:45:50.546Z,2.35
2019-04-27T13:49:21.768Z,2.00
2019-04-27T13:52:31.659Z,2.05
2019-04-27T13:55:38.385Z,2.42
2019-04-27T13:58:48.199Z,2.25
2019-04-27T14:01:54.694Z,3.10
2019-04-27T14:05:01.285Z,2.65
2019-04-27T14:08:09.163Z,2.60
2019-04-27T14:11:15.711Z,2.00
2019-04-27T14:14:22.439Z,1.65
2019-04-27T14:17:30.507Z,2.05
2019-04-27T14:20:38.820Z,2.00
2019-04-27T14:23:45.468Z,2.08
2019-04-27T14:26:51.974Z,2.40
2019-04-27T14:29:59.565Z,1.92
2019-04-27T14:33:08.364Z,2.40
2019-04-27T14:36:18.245Z,2.35
2019-04-27T14:39:25.277Z,2.37
2019-04-27T14:42:32.081Z,1.98
2019-04-27T14:45:39.743Z,1.90
2019-04-27T14:48:46.536Z,2.02
2019-04-27T14:51:53.217Z,2.25
2019-04-27T14:54:59.849Z,2.45
2019-04-27T14:58:06.503Z,2.08
2019-04-27T15:01:13.066Z,3.02
2019-04-27T15:04:19.779Z,2.30
2019-04-27T15:07:26.745Z,2.08
2019-04-27T15:10:36.033Z,2.20
2019-04-27T15:13:43.012Z,2.12
2019-04-27T15:16:49.849Z,2.40
2019-04-27T15:20:01.689Z,2.08
2019-04-27T15:23:10.069Z,2.45
2019-04-27T15:26:21.839Z,2.72
2019-04-27T15:29:27.727Z,1.50
2019-04-27T15:32:47.997Z,2.22
2019-04-27T15:36:01.866Z,2.60
2019-04-27T15:39:14.423Z,2.87
2019-04-27T15:42:28.317Z,3.08
2019-04-27T15:45:35.025Z,2.20
2019-04-27T15:48:41.476Z,2.42
2019-04-27T15:51:50.651Z,3.22
2019-04-27T15:54:58.114Z,2.15
2019-04-27T15:58:04.664Z,2.00
2019-04-27T16:01:12.099Z,2.00
2019-04-27T16:04:18.672Z,2.05
2019-04-27T16:07:30.388Z,2.10
2019-04-27T16:10:37.339Z,2.08
2019-04-27T16:13:45.169Z,2.10
2019-04-27T16:16:51.750Z,2.00
2019-04-27T16:19:58.303Z,1.80
2019-04-27T16:23:05.077Z,1.60
2019-04-27T16:26:14.993Z,1.60
2019-04-27T16:29:23.142Z,2.12
2019-04-27T16:32:28.741Z,1.90
2019-04-27T16:35:35.272Z,1.90
2019-04-27T16:38:56.780Z,1.92
2019-04-27T16:42:03.516Z,2.02
2019-04-27T16:45:10.292Z,1.90
2019-04-27T16:48:18.561Z,1.85
2019-04-27T16:51:25.441Z,2.65
2019-04-27T16:54:32.112Z,2.00
2019-04-27T16:57:40.070Z,2.00
2019-04-27T17:00:48.143Z,2.30
2019-04-27T17:03:55.189Z,2.40
2019-04-27T17:07:01.688Z,1.92
2019-04-27T17:10:09.397Z,2.62
2019-04-27T17:13:16.529Z,2.08
2019-04-27T17:16:58.180Z,2.60
2019-04-27T17:20:05.394Z,3.17
2019-04-27T17:23:11.884Z,1.98
2019-04-27T17:26:21.881Z,2.08
2019-04-27T17:29:28.004Z,1.87
2019-04-27T17:32:48.645Z,2.15
2019-04-27T17:35:54.187Z,1.90
2019-04-27T17:39:00.797Z,1.80
2019-04-27T17:42:09.727Z,1.98
2019-04-27T17:45:16.450Z,1.95
2019-04-27T17:48:22.948Z,3.65
2019-04-27T17:51:35.332Z,1.98
2019-04-27T17:54:47.504Z,2.55
2019-04-27T17:57:49.406Z,1.92
2019-04-27T18:00:55.973Z,5.05
2019-04-27T18:04:03.102Z,2.58
2019-04-27T18:07:10.861Z,6.70
2019-04-27T18:10:22.406Z,2.10
2019-04-27T18:13:26.530Z,6.10
2019-04-27T18:16:34.498Z,2.75
2019-04-27T18:19:46.563Z,2.45
2019-04-27T18:23:10.612Z,3.22
2019-04-27T18:26:19.307Z,2.80
2019-04-27T18:29:30.853Z,2.37
2019-04-27T18:32:37.924Z,2.27
2019-04-27T18:35:44.849Z,3.60
2019-04-27T18:38:51.495Z,3.25
2019-04-27T18:42:00.866Z,1.95
2019-04-27T18:45:08.503Z,1.80
2019-04-27T18:48:21.131Z,2.60
2019-04-27T18:52:04.195Z,2.12
2019-04-27T18:55:11.356Z,2.77
2019-04-27T18:58:21.578Z,3.05
2019-04-27T19:01:28.992Z,2.30
2019-04-27T19:04:35.578Z,2.22
2019-04-27T19:07:42.596Z,2.40
2019-04-27T19:10:49.488Z,2.50
2019-04-27T19:13:55.985Z,2.50
2019-04-27T19:17:02.559Z,2.35
2019-04-27T19:20:10.428Z,2.17
2019-04-27T19:23:17.307Z,2.42
2019-04-27T19:26:45.727Z,2.15
2019-04-27T19:29:55.510Z,2.30
2019-04-27T19:33:02.214Z,2.00
2019-04-27T19:36:08.978Z,2.02
2019-04-27T19:39:15.824Z,2.52
2019-04-27T19:42:22.680Z,2.00
2019-04-27T19:45:29.782Z,2.00
2019-04-27T19:48:36.298Z,1.90
2019-04-27T19:51:42.764Z,2.22
2019-04-27T19:54:49.486Z,2.10
2019-04-27T19:58:01.524Z,1.98
2019-04-27T20:01:14.653Z,1.95
2019-04-27T20:04:27.861Z,1.90
2019-04-27T20:07:34.813Z,2.65
2019-04-27T20:10:43.887Z,2.20
2019-04-27T20:13:50.639Z,2.30
2019-04-27T20:16:58.783Z,2.60
2019-04-27T20:20:07.492Z,2.58
2019-04-27T20:23:16.759Z,1.90
2019-04-27T20:26:23.272Z,2.00
2019-04-27T20:29:31.755Z,2.42
2019-04-27T20:36:01.037Z,2.52
2019-04-27T20:39:11.675Z,2.70
2019-04-27T20:42:18.071Z,2.33
2019-04-27T20:45:24.826Z,2.15
2019-04-27T20:48:31.453Z,2.47
2019-04-27T20:51:55.928Z,2.25
2019-04-27T20:55:02.497Z,2.10
2019-04-27T20:58:09.081Z,2.37
2019-04-27T21:01:16.035Z,3.27
2019-04-27T21:04:26.103Z,3.05
2019-04-27T21:07:47.612Z,2.42
2019-04-27T21:10:55.253Z,2.42
2019-04-27T21:14:01.776Z,2.30
2019-04-27T21:17:08.407Z,2.15
2019-04-27T21:20:15.269Z,2.17
2019-04-27T21:23:24.553Z,2.08
2019-04-27T21:26:32.240Z,2.20
2019-04-27T21:29:38.830Z,2.02
2019-04-27T21:32:45.334Z,1.92
2019-04-27T21:35:51.803Z,1.95
2019-04-27T21:38:58.540Z,2.12
2019-04-27T21:42:06.041Z,2.60
2019-04-27T21:45:12.922Z,1.85
2019-04-27T21:48:21.238Z,1.90
2019-04-27T21:51:28.084Z,2.65
2019-04-27T21:54:35.908Z,2.27
2019-04-27T21:57:42.462Z,2.00
2019-04-27T22:01:13.590Z,2.15
2019-04-27T22:04:22.846Z,2.02
2019-04-27T22:07:29.301Z,2.00
2019-04-27T22:10:37.960Z,2.15
2019-04-27T22:13:44.335Z,1.90
2019-04-27T22:17:04.747Z,2.40
2019-04-27T22:20:11.843Z,2.30
2019-04-27T22:23:34.167Z,2.98
2019-04-27T22:26:41.477Z,2.75
2019-04-27T22:29:48.233Z,3.22
2019-04-27T22:32:54.749Z,2.95
2019-04-27T22:36:01.895Z,2.80
2019-04-27T22:39:36.702Z,2.47
2019-04-27T22:42:57.411Z,2.42
2019-04-27T22:46:04.649Z,2.67
2019-04-27T22:49:11.303Z,2.65
2019-04-27T22:52:17.826Z,3.77
2019-04-27T22:55:24.478Z,2.40
2019-04-27T22:58:31.449Z,2.30
2019-04-27T23:01:51.157Z,3.12
2019-04-27T23:05:01.746Z,2.37
2019-04-27T23:08:09.725Z,2.72
2019-04-27T23:11:16.292Z,4.08
2019-04-27T23:14:22.911Z,2.47
2019-04-27T23:17:42.290Z,2.45
2019-04-27T23:20:48.721Z,2.90
2019-04-27T23:23:55.291Z,3.12
2019-04-27T23:27:03.579Z,2.47
2019-04-27T23:30:11.324Z,2.25
2019-04-27T23:33:18.072Z,2.58
2019-04-27T23:36:24.660Z,2.25
2019-04-27T23:39:31.194Z,2.60
2019-04-27T23:42:37.731Z,3.02
2019-04-27T23:45:44.288Z,2.80
2019-04-27T23:48:52.039Z,2.55
2019-04-27T23:52:06.207Z,2.08
2019-04-27T23:55:12.733Z,2.02
2019-04-27T23:58:19.253Z,4.62
